1452 UTC 30 August 2016 found at http://aviationweather.gov/adds/metars/
 
METAR text: KMNH 301439Z AUTO 25004KT 10SM CLR 15/06 A3045 RMK AO2
Conditions at: KMNH (MONUMENT/ELBERT , CO, US) observed 1439 UTC 30 August 2016
Temperature: 15.0°C (59°F)
Dewpoint: 6.0°C (43°F) [RH = 55%]
Pressure (altimeter): 30.45 inches Hg (1031.2 mb)
Winds: from the WSW (250 degrees) at 5 MPH (4 knots; 2.1 m/s)
Visibility: 10 or more miles (16+ km)
Ceiling: at least 12,000 feet AGL
Clouds: sky clear below 12,000 feet AGL
Weather: automated observation with no human augmentation;
there may or may not be significant weather present at this time

METAR text: KMNH 301419Z AUTO 23004KT 10SM CLR 13/06 A3046 RMK AO2
Conditions at: KMNH (MONUMENT/ELBERT , CO, US) observed 1419 UTC 30 August 2016
Temperature: 13.0°C (55°F)
Dewpoint: 6.0°C (43°F) [RH = 62%]
Pressure (altimeter): 30.46 inches Hg (1031.6 mb)
Winds: from the SW (230 degrees) at 5 MPH (4 knots; 2.1 m/s)
Visibility: 10 or more miles (16+ km)
Ceiling: at least 12,000 feet AGL
Clouds: sky clear below 12,000 feet AGL
Weather: automated observation with no human augmentation;
there may or may not be significant weather present at this time

METAR text: KMNH 301359Z AUTO 26004KT 10SM CLR 12/06 A3045 RMK AO2
Conditions at: KMNH (MONUMENT/ELBERT , CO, US) observed 1359 UTC 30 August 2016
Temperature: 12.0°C (54°F)
Dewpoint: 6.0°C (43°F) [RH = 67%]
Pressure (altimeter): 30.45 inches Hg (1031.2 mb)
Winds: from the W (260 degrees) at 5 MPH (4 knots; 2.1 m/s)
Visibility: 10 or more miles (16+ km)
Ceiling: at least 12,000 feet AGL
Clouds: sky clear below 12,000 feet AGL
Weather: automated observation with no human augmentation;
there may or may not be significant weather present at this time

METAR text: KMNH 301339Z AUTO 27003KT 10SM SCT100 10/07 A3045 RMK AO2
Conditions at: KMNH (MONUMENT/ELBERT , CO, US) observed 1339 UTC 30 August 2016
Temperature: 10.0°C (50°F)
Dewpoint: 7.0°C (45°F) [RH = 82%]
Pressure (altimeter): 30.45 inches Hg (1031.2 mb)
Winds: from the W (270 degrees) at 3 MPH (3 knots; 1.6 m/s)
Visibility: 10 or more miles (16+ km)
Ceiling: at least 12,000 feet AGL
Clouds: scattered clouds at 10000 feet AGL
Weather: automated observation with no human augmentation;
there may or may not be significant weather present at this time

METAR text: KMNH 301319Z AUTO 20003KT 10SM BKN110 10/07 A3044 RMK AO2
Conditions at: KMNH (MONUMENT/ELBERT , CO, US) observed 1319 UTC 30 August 2016
Temperature: 10.0°C (50°F)
Dewpoint: 7.0°C (45°F) [RH = 82%]
Pressure (altimeter): 30.44 inches Hg (1030.9 mb)
Winds: from the SSW (200 degrees) at 3 MPH (3 knots; 1.6 m/s)
Visibility: 10 or more miles (16+ km)
Ceiling: 11000 feet AGL
Clouds: broken clouds at 11000 feet AGL
Weather: automated observation with no human augmentation;
there may or may not be significant weather present at this time

METAR text: KMNH 301259Z AUTO 20005KT 10SM OVC110 10/06 A3044 RMK AO2
Conditions at: KMNH (MONUMENT/ELBERT , CO, US) observed 1259 UTC 30 August 2016
Temperature: 10.0°C (50°F)
Dewpoint: 6.0°C (43°F) [RH = 76%]
Pressure (altimeter): 30.44 inches Hg (1030.9 mb)
Winds: from the SSW (200 degrees) at 6 MPH (5 knots; 2.6 m/s)
Visibility: 10 or more miles (16+ km)
Ceiling: 11000 feet AGL
Clouds: overcast cloud deck at 11000 feet AGL
Weather: automated observation with no human augmentation;
there may or may not be significant weather present at this time

METAR text: KMNH 301239Z AUTO 21005KT 10SM OVC110 10/07 A3044 RMK AO2
Conditions at: KMNH (MONUMENT/ELBERT , CO, US) observed 1239 UTC 30 August 2016
Temperature: 10.0°C (50°F)
Dewpoint: 7.0°C (45°F) [RH = 82%]
Pressure (altimeter): 30.44 inches Hg (1030.9 mb)
Winds: from the SSW (210 degrees) at 6 MPH (5 knots; 2.6 m/s)
Visibility: 10 or more miles (16+ km)
Ceiling: 11000 feet AGL
Clouds: overcast cloud deck at 11000 feet AGL
Weather: automated observation with no human augmentation;
there may or may not be significant weather present at this time

METAR text: KMNH 301219Z AUTO 21005KT 10SM OVC100 10/06 A3044 RMK AO2
Conditions at: KMNH (MONUMENT/ELBERT , CO, US) observed 1219 UTC 30 August 2016
Temperature: 10.0°C (50°F)
Dewpoint: 6.0°C (43°F) [RH = 76%]
Pressure (altimeter): 30.44 inches Hg (1030.9 mb)
Winds: from the SSW (210 degrees) at 6 MPH (5 knots; 2.6 m/s)
Visibility: 10 or more miles (16+ km)
Ceiling: 10000 feet AGL
Clouds: overcast cloud deck at 10000 feet AGL
Weather: automated observation with no human augmentation;
there may or may not be significant weather present at this time

METAR text: KMNH 301159Z AUTO 20004KT 10SM OVC100 10/07 A3044 RMK AO2
Conditions at: KMNH (MONUMENT/ELBERT , CO, US) observed 1159 UTC 30 August 2016
Temperature: 10.0°C (50°F)
Dewpoint: 7.0°C (45°F) [RH = 82%]
Pressure (altimeter): 30.44 inches Hg (1030.9 mb)
Winds: from the SSW (200 degrees) at 5 MPH (4 knots; 2.1 m/s)
Visibility: 10 or more miles (16+ km)
Ceiling: 10000 feet AGL
Clouds: overcast cloud deck at 10000 feet AGL
Weather: automated observation with no human augmentation;
there may or may not be significant weather present at this time

METAR text: KMNH 301139Z AUTO 21006KT 10SM BKN100 10/06 A3044 RMK AO2
Conditions at: KMNH (MONUMENT/ELBERT , CO, US) observed 1139 UTC 30 August 2016
Temperature: 10.0°C (50°F)
Dewpoint: 6.0°C (43°F) [RH = 76%]
Pressure (altimeter): 30.44 inches Hg (1030.9 mb)
Winds: from the SSW (210 degrees) at 7 MPH (6 knots; 3.1 m/s)
Visibility: 10 or more miles (16+ km)
Ceiling: 10000 feet AGL
Clouds: broken clouds at 10000 feet AGL
Weather: automated observation with no human augmentation;
there may or may not be significant weather present at this time

METAR text: KMNH 301119Z AUTO 21006KT 10SM SCT043 BKN100 10/07 A3044 RMK AO2
Conditions at: KMNH (MONUMENT/ELBERT , CO, US) observed 1119 UTC 30 August 2016
Temperature: 10.0°C (50°F)
Dewpoint: 7.0°C (45°F) [RH = 82%]
Pressure (altimeter): 30.44 inches Hg (1030.9 mb)
Winds: from the SSW (210 degrees) at 7 MPH (6 knots; 3.1 m/s)
Visibility: 10 or more miles (16+ km)
Ceiling: 10000 feet AGL
Clouds: scattered clouds at 4300 feet AGL
broken clouds at 10000 feet AGL
Weather: automated observation with no human augmentation;
there may or may not be significant weather present at this time

METAR text: KMNH 301059Z AUTO 20003KT 10SM BKN043 OVC100 10/07 A3044 RMK AO2
Conditions at: KMNH (MONUMENT/ELBERT , CO, US) observed 1059 UTC 30 August 2016
Temperature: 10.0°C (50°F)
Dewpoint: 7.0°C (45°F) [RH = 82%]
Pressure (altimeter): 30.44 inches Hg (1030.9 mb)
Winds: from the SSW (200 degrees) at 3 MPH (3 knots; 1.6 m/s)
Visibility: 10 or more miles (16+ km)
Ceiling: 4300 feet AGL
Clouds: broken clouds at 4300 feet AGL
overcast cloud deck at 10000 feet AGL
Weather: automated observation with no human augmentation;
there may or may not be significant weather present at this time

METAR text: KMNH 301039Z AUTO 00000KT 10SM OVC043 11/08 A3045 RMK AO2
Conditions at: KMNH (MONUMENT/ELBERT , CO, US) observed 1039 UTC 30 August 2016
Temperature: 11.0°C (52°F)
Dewpoint: 8.0°C (46°F) [RH = 82%]
Pressure (altimeter): 30.45 inches Hg (1031.2 mb)
Winds: calm
Visibility: 10 or more miles (16+ km)
Ceiling: 4300 feet AGL
Clouds: overcast cloud deck at 4300 feet AGL
Weather: automated observation with no human augmentation;
there may or may not be significant weather present at this time

METAR text: KMNH 301019Z AUTO 22003KT 10SM BKN041 OVC050 11/07 A3044 RMK AO2
Conditions at: KMNH (MONUMENT/ELBERT , CO, US) observed 1019 UTC 30 August 2016
Temperature: 11.0°C (52°F)
Dewpoint: 7.0°C (45°F) [RH = 76%]
Pressure (altimeter): 30.44 inches Hg (1030.9 mb)
Winds: from the SW (220 degrees) at 3 MPH (3 knots; 1.6 m/s)
Visibility: 10 or more miles (16+ km)
Ceiling: 4100 feet AGL
Clouds: broken clouds at 4100 feet AGL
overcast cloud deck at 5000 feet AGL
Weather: automated observation with no human augmentation;
there may or may not be significant weather present at this time

METAR text: KMNH 300959Z AUTO 25006KT 10SM BKN041 BKN050 OVC100 11/07 A3044 RMK AO2
Conditions at: KMNH (MONUMENT/ELBERT , CO, US) observed 0959 UTC 30 August 2016
Temperature: 11.0°C (52°F)
Dewpoint: 7.0°C (45°F) [RH = 76%]
Pressure (altimeter): 30.44 inches Hg (1030.9 mb)
Winds: from the WSW (250 degrees) at 7 MPH (6 knots; 3.1 m/s)
Visibility: 10 or more miles (16+ km)
Ceiling: 4100 feet AGL
Clouds: broken clouds at 4100 feet AGL
broken clouds at 5000 feet AGL
overcast cloud deck at 10000 feet AGL
Weather: automated observation with no human augmentation;
there may or may not be significant weather present at this time

METAR text: KMNH 300938Z AUTO 23005KT 10SM BKN041 BKN050 OVC085 11/07 A3044 RMK AO2
Conditions at: KMNH (MONUMENT/ELBERT , CO, US) observed 0938 UTC 30 August 2016
Temperature: 11.0°C (52°F)
Dewpoint: 7.0°C (45°F) [RH = 76%]
Pressure (altimeter): 30.44 inches Hg (1030.9 mb)
Winds: from the SW (230 degrees) at 6 MPH (5 knots; 2.6 m/s)
Visibility: 10 or more miles (16+ km)
Ceiling: 4100 feet AGL
Clouds: broken clouds at 4100 feet AGL
broken clouds at 5000 feet AGL
overcast cloud deck at 8500 feet AGL
Weather: automated observation with no human augmentation;
there may or may not be significant weather present at this time

METAR text: KMNH 300919Z AUTO 23006KT 10SM BKN041 BKN055 OVC085 11/07 A3045 RMK AO2
Conditions at: KMNH (MONUMENT/ELBERT , CO, US) observed 0919 UTC 30 August 2016
Temperature: 11.0°C (52°F)
Dewpoint: 7.0°C (45°F) [RH = 76%]
Pressure (altimeter): 30.45 inches Hg (1031.2 mb)
Winds: from the SW (230 degrees) at 7 MPH (6 knots; 3.1 m/s)
Visibility: 10 or more miles (16+ km)
Ceiling: 4100 feet AGL
Clouds: broken clouds at 4100 feet AGL
broken clouds at 5500 feet AGL
overcast cloud deck at 8500 feet AGL
Weather: automated observation with no human augmentation;
there may or may not be significant weather present at this time

METAR text: KMNH 300859Z AUTO 00000KT 10SM BKN041 BKN047 OVC090 11/07 A3045 RMK AO2
Conditions at: KMNH (MONUMENT/ELBERT , CO, US) observed 0859 UTC 30 August 2016
Temperature: 11.0°C (52°F)
Dewpoint: 7.0°C (45°F) [RH = 76%]
Pressure (altimeter): 30.45 inches Hg (1031.2 mb)
Winds: calm
Visibility: 10 or more miles (16+ km)
Ceiling: 4100 feet AGL
Clouds: broken clouds at 4100 feet AGL
broken clouds at 4700 feet AGL
overcast cloud deck at 9000 feet AGL
Weather: automated observation with no human augmentation;
there may or may not be significant weather present at this time

METAR text: KMNH 300839Z AUTO 24004KT 10SM SCT043 OVC090 11/07 A3045 RMK AO2
Conditions at: KMNH (MONUMENT/ELBERT , CO, US) observed 0839 UTC 30 August 2016
Temperature: 11.0°C (52°F)
Dewpoint: 7.0°C (45°F) [RH = 76%]
Pressure (altimeter): 30.45 inches Hg (1031.2 mb)
Winds: from the WSW (240 degrees) at 5 MPH (4 knots; 2.1 m/s)
Visibility: 10 or more miles (16+ km)
Ceiling: 9000 feet AGL
Clouds: scattered clouds at 4300 feet AGL
overcast cloud deck at 9000 feet AGL
Weather: automated observation with no human augmentation;
there may or may not be significant weather present at this time

METAR text: KMNH 300819Z AUTO 21003KT 10SM SCT045 OVC100 10/07 A3045 RMK AO2
Conditions at: KMNH (MONUMENT/ELBERT , CO, US) observed 0819 UTC 30 August 2016
Temperature: 10.0°C (50°F)
Dewpoint: 7.0°C (45°F) [RH = 82%]
Pressure (altimeter): 30.45 inches Hg (1031.2 mb)
Winds: from the SSW (210 degrees) at 3 MPH (3 knots; 1.6 m/s)
Visibility: 10 or more miles (16+ km)
Ceiling: 10000 feet AGL
Clouds: scattered clouds at 4500 feet AGL
overcast cloud deck at 10000 feet AGL
Weather: automated observation with no human augmentation;
there may or may not be significant weather present at this time

METAR text: KMNH 300758Z AUTO 21004KT 10SM OVC100 10/07 A3045 RMK AO2
Conditions at: KMNH (MONUMENT/ELBERT , CO, US) observed 0758 UTC 30 August 2016
Temperature: 10.0°C (50°F)
Dewpoint: 7.0°C (45°F) [RH = 82%]
Pressure (altimeter): 30.45 inches Hg (1031.2 mb)
Winds: from the SSW (210 degrees) at 5 MPH (4 knots; 2.1 m/s)
Visibility: 10 or more miles (16+ km)
Ceiling: 10000 feet AGL
Clouds: overcast cloud deck at 10000 feet AGL
Weather: automated observation with no human augmentation;
there may or may not be significant weather present at this time

METAR text: KMNH 300739Z AUTO 23005KT 10SM OVC100 10/07 A3045 RMK AO2
Conditions at: KMNH (MONUMENT/ELBERT , CO, US) observed 0739 UTC 30 August 2016
Temperature: 10.0°C (50°F)
Dewpoint: 7.0°C (45°F) [RH = 82%]
Pressure (altimeter): 30.45 inches Hg (1031.2 mb)
Winds: from the SW (230 degrees) at 6 MPH (5 knots; 2.6 m/s)
Visibility: 10 or more miles (16+ km)
Ceiling: 10000 feet AGL
Clouds: overcast cloud deck at 10000 feet AGL
Weather: automated observation with no human augmentation;
there may or may not be significant weather present at this time

METAR text: KMNH 300719Z AUTO 25004KT 10SM OVC090 10/07 A3045 RMK AO2
Conditions at: KMNH (MONUMENT/ELBERT , CO, US) observed 0719 UTC 30 August 2016
Temperature: 10.0°C (50°F)
Dewpoint: 7.0°C (45°F) [RH = 82%]
Pressure (altimeter): 30.45 inches Hg (1031.2 mb)
Winds: from the WSW (250 degrees) at 5 MPH (4 knots; 2.1 m/s)
Visibility: 10 or more miles (16+ km)
Ceiling: 9000 feet AGL
Clouds: overcast cloud deck at 9000 feet AGL
Weather: automated observation with no human augmentation;
there may or may not be significant weather present at this time

METAR text: KMNH 300658Z AUTO 24008KT 10SM BKN090 10/07 A3045 RMK AO2
Conditions at: KMNH (MONUMENT/ELBERT , CO, US) observed 0658 UTC 30 August 2016
Temperature: 10.0°C (50°F)
Dewpoint: 7.0°C (45°F) [RH = 82%]
Pressure (altimeter): 30.45 inches Hg (1031.2 mb)
Winds: from the WSW (240 degrees) at 9 MPH (8 knots; 4.2 m/s)
Visibility: 10 or more miles (16+ km)
Ceiling: 9000 feet AGL
Clouds: broken clouds at 9000 feet AGL
Weather: automated observation with no human augmentation;
there may or may not be significant weather present at this time

METAR text: KMNH 300639Z AUTO 23006KT 10SM BKN090 09/07 A3045 RMK AO2
Conditions at: KMNH (MONUMENT/ELBERT , CO, US) observed 0639 UTC 30 August 2016
Temperature: 9.0°C (48°F)
Dewpoint: 7.0°C (45°F) [RH = 87%]
Pressure (altimeter): 30.45 inches Hg (1031.2 mb)
Winds: from the SW (230 degrees) at 7 MPH (6 knots; 3.1 m/s)
Visibility: 10 or more miles (16+ km)
Ceiling: 9000 feet AGL
Clouds: broken clouds at 9000 feet AGL
Weather: automated observation with no human augmentation;
there may or may not be significant weather present at this time

METAR text: KMNH 300619Z AUTO 24008KT 10SM SCT090 09/07 A3045 RMK AO2
Conditions at: KMNH (MONUMENT/ELBERT , CO, US) observed 0619 UTC 30 August 2016
Temperature: 9.0°C (48°F)
Dewpoint: 7.0°C (45°F) [RH = 87%]
Pressure (altimeter): 30.45 inches Hg (1031.2 mb)
Winds: from the WSW (240 degrees) at 9 MPH (8 knots; 4.2 m/s)
Visibility: 10 or more miles (16+ km)
Ceiling: at least 12,000 feet AGL
Clouds: scattered clouds at 9000 feet AGL
Weather: automated observation with no human augmentation;
there may or may not be significant weather present at this time

METAR text: KMNH 300559Z AUTO 24007KT 10SM CLR 09/07 A3045 RMK AO2
Conditions at: KMNH (MONUMENT/ELBERT , CO, US) observed 0559 UTC 30 August 2016
Temperature: 9.0°C (48°F)
Dewpoint: 7.0°C (45°F) [RH = 87%]
Pressure (altimeter): 30.45 inches Hg (1031.2 mb)
Winds: from the WSW (240 degrees) at 8 MPH (7 knots; 3.6 m/s)
Visibility: 10 or more miles (16+ km)
Ceiling: at least 12,000 feet AGL
Clouds: sky clear below 12,000 feet AGL
Weather: automated observation with no human augmentation;
there may or may not be significant weather present at this time

METAR text: KMNH 300539Z AUTO 25005KT 10SM CLR 08/07 A3045 RMK AO2
Conditions at: KMNH (MONUMENT/ELBERT , CO, US) observed 0539 UTC 30 August 2016
Temperature: 8.0°C (46°F)
Dewpoint: 7.0°C (45°F) [RH = 93%]
Pressure (altimeter): 30.45 inches Hg (1031.2 mb)
Winds: from the WSW (250 degrees) at 6 MPH (5 knots; 2.6 m/s)
Visibility: 10 or more miles (16+ km)
Ceiling: at least 12,000 feet AGL
Clouds: sky clear below 12,000 feet AGL
Weather: automated observation with no human augmentation;
there may or may not be significant weather present at this time

METAR text: KMNH 300518Z AUTO 27005KT 10SM SCT100 09/07 A3046 RMK AO2
Conditions at: KMNH (MONUMENT/ELBERT , CO, US) observed 0518 UTC 30 August 2016
Temperature: 9.0°C (48°F)
Dewpoint: 7.0°C (45°F) [RH = 87%]
Pressure (altimeter): 30.46 inches Hg (1031.6 mb)
Winds: from the W (270 degrees) at 6 MPH (5 knots; 2.6 m/s)
Visibility: 10 or more miles (16+ km)
Ceiling: at least 12,000 feet AGL
Clouds: scattered clouds at 10000 feet AGL
Weather: automated observation with no human augmentation;
there may or may not be significant weather present at this time

METAR text: KMNH 300459Z AUTO 29005KT 10SM OVC100 10/07 A3047 RMK AO2
Conditions at: KMNH (MONUMENT/ELBERT , CO, US) observed 0459 UTC 30 August 2016
Temperature: 10.0°C (50°F)
Dewpoint: 7.0°C (45°F) [RH = 82%]
Pressure (altimeter): 30.47 inches Hg (1031.9 mb)
Winds: from the WNW (290 degrees) at 6 MPH (5 knots; 2.6 m/s)
Visibility: 10 or more miles (16+ km)
Ceiling: 10000 feet AGL
Clouds: overcast cloud deck at 10000 feet AGL
Weather: automated observation with no human augmentation;
there may or may not be significant weather present at this time

METAR text: KMNH 300439Z AUTO 33005KT 10SM OVC100 10/07 A3047 RMK AO2
Conditions at: KMNH (MONUMENT/ELBERT , CO, US) observed 0439 UTC 30 August 2016
Temperature: 10.0°C (50°F)
Dewpoint: 7.0°C (45°F) [RH = 82%]
Pressure (altimeter): 30.47 inches Hg (1031.9 mb)
Winds: from the NNW (330 degrees) at 6 MPH (5 knots; 2.6 m/s)
Visibility: 10 or more miles (16+ km)
Ceiling: 10000 feet AGL
Clouds: overcast cloud deck at 10000 feet AGL
Weather: automated observation with no human augmentation;
there may or may not be significant weather present at this time

METAR text: KMNH 300419Z AUTO 27004KT 10SM SCT065 OVC100 10/07 A3048 RMK AO2
Conditions at: KMNH (MONUMENT/ELBERT , CO, US) observed 0419 UTC 30 August 2016
Temperature: 10.0°C (50°F)
Dewpoint: 7.0°C (45°F) [RH = 82%]
Pressure (altimeter): 30.48 inches Hg (1032.3 mb)
Winds: from the W (270 degrees) at 5 MPH (4 knots; 2.1 m/s)
Visibility: 10 or more miles (16+ km)
Ceiling: 10000 feet AGL
Clouds: scattered clouds at 6500 feet AGL
overcast cloud deck at 10000 feet AGL
Weather: automated observation with no human augmentation;
there may or may not be significant weather present at this time

METAR text: KMNH 300359Z AUTO 28007KT 10SM SCT100 10/07 A3048 RMK AO2
Conditions at: KMNH (MONUMENT/ELBERT , CO, US) observed 0359 UTC 30 August 2016
Temperature: 10.0°C (50°F)
Dewpoint: 7.0°C (45°F) [RH = 82%]
Pressure (altimeter): 30.48 inches Hg (1032.3 mb)
Winds: from the W (280 degrees) at 8 MPH (7 knots; 3.6 m/s)
Visibility: 10 or more miles (16+ km)
Ceiling: at least 12,000 feet AGL
Clouds: scattered clouds at 10000 feet AGL
Weather: automated observation with no human augmentation;
there may or may not be significant weather present at this time

METAR text: KMNH 300339Z AUTO 27007KT 10SM CLR 09/08 A3048 RMK AO2
Conditions at: KMNH (MONUMENT/ELBERT , CO, US) observed 0339 UTC 30 August 2016
Temperature: 9.0°C (48°F)
Dewpoint: 8.0°C (46°F) [RH = 93%]
Pressure (altimeter): 30.48 inches Hg (1032.3 mb)
Winds: from the W (270 degrees) at 8 MPH (7 knots; 3.6 m/s)
Visibility: 10 or more miles (16+ km)
Ceiling: at least 12,000 feet AGL
Clouds: sky clear below 12,000 feet AGL
Weather: automated observation with no human augmentation;
there may or may not be significant weather present at this time

METAR text: KMNH 300318Z AUTO 29008KT 10SM CLR 10/08 A3048 RMK AO2
Conditions at: KMNH (MONUMENT/ELBERT , CO, US) observed 0318 UTC 30 August 2016
Temperature: 10.0°C (50°F)
Dewpoint: 8.0°C (46°F) [RH = 87%]
Pressure (altimeter): 30.48 inches Hg (1032.3 mb)
Winds: from the WNW (290 degrees) at 9 MPH (8 knots; 4.2 m/s)
Visibility: 10 or more miles (16+ km)
Ceiling: at least 12,000 feet AGL
Clouds: sky clear below 12,000 feet AGL
Weather: automated observation with no human augmentation;
there may or may not be significant weather present at this time

METAR text: KMNH 300259Z AUTO 29008KT 10SM CLR 10/08 A3048 RMK AO2
Conditions at: KMNH (MONUMENT/ELBERT , CO, US) observed 0259 UTC 30 August 2016
Temperature: 10.0°C (50°F)
Dewpoint: 8.0°C (46°F) [RH = 87%]
Pressure (altimeter): 30.48 inches Hg (1032.3 mb)
Winds: from the WNW (290 degrees) at 9 MPH (8 knots; 4.2 m/s)
Visibility: 10 or more miles (16+ km)
Ceiling: at least 12,000 feet AGL
Clouds: sky clear below 12,000 feet AGL
Weather: automated observation with no human augmentation;
there may or may not be significant weather present at this time

METAR text: KMNH 300239Z AUTO 29009KT 10SM SCT085 BKN110 11/08 A3048 RMK AO2
Conditions at: KMNH (MONUMENT/ELBERT , CO, US) observed 0239 UTC 30 August 2016
Temperature: 11.0°C (52°F)
Dewpoint: 8.0°C (46°F) [RH = 82%]
Pressure (altimeter): 30.48 inches Hg (1032.3 mb)
Winds: from the WNW (290 degrees) at 10 MPH (9 knots; 4.7 m/s)
Visibility: 10 or more miles (16+ km)
Ceiling: 11000 feet AGL
Clouds: scattered clouds at 8500 feet AGL
broken clouds at 11000 feet AGL
Weather: automated observation with no human augmentation;
there may or may not be significant weather present at this time

METAR text: KMNH 300219Z AUTO 27009KT 10SM OVC100 11/07 A3046 RMK AO2
Conditions at: KMNH (MONUMENT/ELBERT , CO, US) observed 0219 UTC 30 August 2016
Temperature: 11.0°C (52°F)
Dewpoint: 7.0°C (45°F) [RH = 76%]
Pressure (altimeter): 30.46 inches Hg (1031.6 mb)
Winds: from the W (270 degrees) at 10 MPH (9 knots; 4.7 m/s)
Visibility: 10 or more miles (16+ km)
Ceiling: 10000 feet AGL
Clouds: overcast cloud deck at 10000 feet AGL
Weather: automated observation with no human augmentation;
there may or may not be significant weather present at this time

METAR text: KMNH 300159Z AUTO 22009KT 10SM SCT075 OVC100 12/07 A3045 RMK AO2
Conditions at: KMNH (MONUMENT/ELBERT , CO, US) observed 0159 UTC 30 August 2016
Temperature: 12.0°C (54°F)
Dewpoint: 7.0°C (45°F) [RH = 71%]
Pressure (altimeter): 30.45 inches Hg (1031.2 mb)
Winds: from the SW (220 degrees) at 10 MPH (9 knots; 4.7 m/s)
Visibility: 10 or more miles (16+ km)
Ceiling: 10000 feet AGL
Clouds: scattered clouds at 7500 feet AGL
overcast cloud deck at 10000 feet AGL
Weather: automated observation with no human augmentation;
there may or may not be significant weather present at this time

METAR text: KMNH 300139Z AUTO 28005KT 10SM SCT080 OVC090 12/08 A3045 RMK AO2
Conditions at: KMNH (MONUMENT/ELBERT , CO, US) observed 0139 UTC 30 August 2016
Temperature: 12.0°C (54°F)
Dewpoint: 8.0°C (46°F) [RH = 76%]
Pressure (altimeter): 30.45 inches Hg (1031.2 mb)
Winds: from the W (280 degrees) at 6 MPH (5 knots; 2.6 m/s)
Visibility: 10 or more miles (16+ km)
Ceiling: 9000 feet AGL
Clouds: scattered clouds at 8000 feet AGL
overcast cloud deck at 9000 feet AGL
Weather: automated observation with no human augmentation;
there may or may not be significant weather present at this time

METAR text: KMNH 300119Z AUTO 22007KT 10SM BKN080 OVC090 12/08 A3045 RMK AO2
Conditions at: KMNH (MONUMENT/ELBERT , CO, US) observed 0119 UTC 30 August 2016
Temperature: 12.0°C (54°F)
Dewpoint: 8.0°C (46°F) [RH = 76%]
Pressure (altimeter): 30.45 inches Hg (1031.2 mb)
Winds: from the SW (220 degrees) at 8 MPH (7 knots; 3.6 m/s)
Visibility: 10 or more miles (16+ km)
Ceiling: 8000 feet AGL
Clouds: broken clouds at 8000 feet AGL
overcast cloud deck at 9000 feet AGL
Weather: automated observation with no human augmentation;
there may or may not be significant weather present at this time

METAR text: KMNH 300059Z AUTO 22008KT 10SM OVC090 11/08 A3045 RMK AO2
Conditions at: KMNH (MONUMENT/ELBERT , CO, US) observed 0059 UTC 30 August 2016
Temperature: 11.0°C (52°F)
Dewpoint: 8.0°C (46°F) [RH = 82%]
Pressure (altimeter): 30.45 inches Hg (1031.2 mb)
Winds: from the SW (220 degrees) at 9 MPH (8 knots; 4.2 m/s)
Visibility: 10 or more miles (16+ km)
Ceiling: 9000 feet AGL
Clouds: overcast cloud deck at 9000 feet AGL
Weather: automated observation with no human augmentation;
there may or may not be significant weather present at this time

METAR text: KMNH 300039Z AUTO 22007KT 10SM OVC090 11/08 A3045 RMK AO2 LTG DSNT S AND SW
Conditions at: KMNH (MONUMENT/ELBERT , CO, US) observed 0039 UTC 30 August 2016
Temperature: 11.0°C (52°F)
Dewpoint: 8.0°C (46°F) [RH = 82%]
Pressure (altimeter): 30.45 inches Hg (1031.2 mb)
Winds: from the SW (220 degrees) at 8 MPH (7 knots; 3.6 m/s)
Visibility: 10 or more miles (16+ km)
Ceiling: 9000 feet AGL
Clouds: overcast cloud deck at 9000 feet AGL
Weather: automated observation with no human augmentation;
there may or may not be significant weather present at this time

METAR text: KMNH 300019Z AUTO 23013G17KT 10SM BKN085 OVC090 11/08 A3045 RMK AO2
Conditions at: KMNH (MONUMENT/ELBERT , CO, US) observed 0019 UTC 30 August 2016
Temperature: 11.0°C (52°F)
Dewpoint: 8.0°C (46°F) [RH = 82%]
Pressure (altimeter): 30.45 inches Hg (1031.2 mb)
Winds: from the SW (230 degrees) at 15 MPH (13 knots; 6.8 m/sgusting to 20 MPH (17 knots; 8.8 m/s)
Visibility: 10 or more miles (16+ km)
Ceiling: 8500 feet AGL
Clouds: broken clouds at 8500 feet AGL
overcast cloud deck at 9000 feet AGL
Weather: automated observation with no human augmentation;
there may or may not be significant weather present at this time

METAR text: KMNH 292359Z AUTO 22013G18KT 10SM OVC070 11/09 A3045 RMK AO2 LTG DSNT SE P0001
Conditions at: KMNH (MONUMENT/ELBERT , CO, US) observed 2359 UTC 29 August 2016
Temperature: 11.0°C (52°F)
Dewpoint: 9.0°C (48°F) [RH = 87%]
Pressure (altimeter): 30.45 inches Hg (1031.2 mb)
Winds: from the SW (220 degrees) at 15 MPH (13 knots; 6.8 m/sgusting to 21 MPH (18 knots; 9.4 m/s)
Visibility: 10 or more miles (16+ km)
Ceiling: 7000 feet AGL
Clouds: overcast cloud deck at 7000 feet AGL
Weather: automated observation with no human augmentation;
there may or may not be significant weather present at this time

METAR text: KMNH 292339Z AUTO 22010KT 10SM -DZ OVC070 11/09 A3046 RMK AO2 LTG DSNT NE AND W P0001
Conditions at: KMNH (MONUMENT/ELBERT , CO, US) observed 2339 UTC 29 August 2016
Temperature: 11.0°C (52°F)
Dewpoint: 9.0°C (48°F) [RH = 87%]
Pressure (altimeter): 30.46 inches Hg (1031.6 mb)
Winds: from the SW (220 degrees) at 12 MPH (10 knots; 5.2 m/s)
Visibility: 10 or more miles (16+ km)
Ceiling: 7000 feet AGL
Clouds: overcast cloud deck at 7000 feet AGL
Weather: -DZ  (light drizzle)

METAR text: KMNH 292319Z AUTO 23011KT 10SM -RA SCT060 OVC070 11/09 A3046 RMK AO2 LTG DSNT NE AND W P0001
Conditions at: KMNH (MONUMENT/ELBERT , CO, US) observed 2319 UTC 29 August 2016
Temperature: 11.0°C (52°F)
Dewpoint: 9.0°C (48°F) [RH = 87%]
Pressure (altimeter): 30.46 inches Hg (1031.6 mb)
Winds: from the SW (230 degrees) at 13 MPH (11 knots; 5.7 m/s)
Visibility: 10 or more miles (16+ km)
Ceiling: 7000 feet AGL
Clouds: scattered clouds at 6000 feet AGL
overcast cloud deck at 7000 feet AGL
Weather: -RA  (light rain)

METAR text: KMNH 292259Z AUTO 25009KT 10SM RA OVC060 11/10 A3047 RMK AO2 LTG DSNT SE AND W P0006
Conditions at: KMNH (MONUMENT/ELBERT , CO, US) observed 2259 UTC 29 August 2016
Temperature: 11.0°C (52°F)
Dewpoint: 10.0°C (50°F) [RH = 94%]
Pressure (altimeter): 30.47 inches Hg (1031.9 mb)
Winds: from the WSW (250 degrees) at 10 MPH (9 knots; 4.7 m/s)
Visibility: 10 or more miles (16+ km)
Ceiling: 6000 feet AGL
Clouds: overcast cloud deck at 6000 feet AGL
Weather: RA  (rain)

METAR text: KMNH 292239Z AUTO 25009KT 10SM -RA OVC060 11/10 A3047 RMK AO2 LTG DSNT E S AND W P0003
Conditions at: KMNH (MONUMENT/ELBERT , CO, US) observed 2239 UTC 29 August 2016
Temperature: 11.0°C (52°F)
Dewpoint: 10.0°C (50°F) [RH = 94%]
Pressure (altimeter): 30.47 inches Hg (1031.9 mb)
Winds: from the WSW (250 degrees) at 10 MPH (9 knots; 4.7 m/s)
Visibility: 10 or more miles (16+ km)
Ceiling: 6000 feet AGL
Clouds: overcast cloud deck at 6000 feet AGL
Weather: -RA  (light rain)

METAR text: KMNH 292219Z AUTO 23005KT 10SM -RA BKN065 OVC070 12/08 A3046 RMK AO2 LTG DSNT E SW AND W P0001
Conditions at: KMNH (MONUMENT/ELBERT , CO, US) observed 2219 UTC 29 August 2016
Temperature: 12.0°C (54°F)
Dewpoint: 8.0°C (46°F) [RH = 76%]
Pressure (altimeter): 30.46 inches Hg (1031.6 mb)
Winds: from the SW (230 degrees) at 6 MPH (5 knots; 2.6 m/s)
Visibility: 10 or more miles (16+ km)
Ceiling: 6500 feet AGL
Clouds: broken clouds at 6500 feet AGL
overcast cloud deck at 7000 feet AGL
Weather: -RA  (light rain)

METAR text: KMNH 292159Z AUTO 10SM -RA SCT044 SCT060 OVC065 12/08 A3046 RMK AO2 LTG DSNT ALQS P0006
Conditions at: KMNH (MONUMENT/ELBERT , CO, US) observed 2159 UTC 29 August 2016
Temperature: 12.0°C (54°F)
Dewpoint: 8.0°C (46°F) [RH = 76%]
Pressure (altimeter): 30.46 inches Hg (1031.6 mb)
Winds: missing
Visibility: 10 or more miles (16+ km)
Ceiling: 6500 feet AGL
Clouds: scattered clouds at 4400 feet AGL
scattered clouds at 6000 feet AGL
overcast cloud deck at 6500 feet AGL
Weather: -RA  (light rain)

METAR text: KMNH 292139Z AUTO 36003KT 7SM TSRA SCT038 BKN046 OVC060 13/06 A3046 RMK AO2 LTG DSNT ALQS P0005
Conditions at: KMNH (MONUMENT/ELBERT , CO, US) observed 2139 UTC 29 August 2016
Temperature: 13.0°C (55°F)
Dewpoint: 6.0°C (43°F) [RH = 62%]
Pressure (altimeter): 30.46 inches Hg (1031.6 mb)
Winds: from the N (360 degrees) at 3 MPH (3 knots; 1.6 m/s)
Visibility: 7 miles (11 km)
Ceiling: 4600 feet AGL
Clouds: scattered clouds at 3800 feet AGL
broken clouds at 4600 feet AGL
overcast cloud deck at 6000 feet AGL
Weather: TSRA  (rain associated with thunderstorm(s))

METAR text: KMNH 292118Z AUTO 12006KT 10SM -RA SCT049 OVC060 12/08 A3044 RMK AO2 LTG DSNT E THRU W P0002
Conditions at: KMNH (MONUMENT/ELBERT , CO, US) observed 2118 UTC 29 August 2016
Temperature: 12.0°C (54°F)
Dewpoint: 8.0°C (46°F) [RH = 76%]
Pressure (altimeter): 30.44 inches Hg (1030.9 mb)
Winds: from the ESE (120 degrees) at 7 MPH (6 knots; 3.1 m/s)
Visibility: 10 or more miles (16+ km)
Ceiling: 6000 feet AGL
Clouds: scattered clouds at 4900 feet AGL
overcast cloud deck at 6000 feet AGL
Weather: -RA  (light rain)

METAR text: KMNH 292059Z AUTO 08007KT 10SM -TSRA OVC060 13/07 A3044 RMK AO2 LTG DSNT ALQS
Conditions at: KMNH (MONUMENT/ELBERT , CO, US) observed 2059 UTC 29 August 2016
Temperature: 13.0°C (55°F)
Dewpoint: 7.0°C (45°F) [RH = 67%]
Pressure (altimeter): 30.44 inches Hg (1030.9 mb)
Winds: from the E (80 degrees) at 8 MPH (7 knots; 3.6 m/s)
Visibility: 10 or more miles (16+ km)
Ceiling: 6000 feet AGL
Clouds: overcast cloud deck at 6000 feet AGL
Weather: -TSRA  (light rain associated with thunderstorm(s))

METAR text: KMNH 292039Z AUTO 08006KT 10SM -RA BKN060 BKN075 OVC090 13/09 A3043 RMK AO2 LTG DSNT E SW AND NW
Conditions at: KMNH (MONUMENT/ELBERT , CO, US) observed 2039 UTC 29 August 2016
Temperature: 13.0°C (55°F)
Dewpoint: 9.0°C (48°F) [RH = 77%]
Pressure (altimeter): 30.43 inches Hg (1030.6 mb)
Winds: from the E (80 degrees) at 7 MPH (6 knots; 3.1 m/s)
Visibility: 10 or more miles (16+ km)
Ceiling: 6000 feet AGL
Clouds: broken clouds at 6000 feet AGL
broken clouds at 7500 feet AGL
overcast cloud deck at 9000 feet AGL
Weather: -RA  (light rain)

METAR text: KMNH 292019Z AUTO 00000KT 10SM OVC090 13/08 A3043 RMK AO2 LTG DSNT ALQS
Conditions at: KMNH (MONUMENT/ELBERT , CO, US) observed 2019 UTC 29 August 2016
Temperature: 13.0°C (55°F)
Dewpoint: 8.0°C (46°F) [RH = 72%]
Pressure (altimeter): 30.43 inches Hg (1030.6 mb)
Winds: calm
Visibility: 10 or more miles (16+ km)
Ceiling: 9000 feet AGL
Clouds: overcast cloud deck at 9000 feet AGL
Weather: automated observation with no human augmentation;
there may or may not be significant weather present at this time

METAR text: KMNH 291958Z AUTO 16003KT 10SM OVC080 13/08 A3042 RMK AO2 LTG DSNT S THRU W
Conditions at: KMNH (MONUMENT/ELBERT , CO, US) observed 1958 UTC 29 August 2016
Temperature: 13.0°C (55°F)
Dewpoint: 8.0°C (46°F) [RH = 72%]
Pressure (altimeter): 30.42 inches Hg (1030.2 mb)
Winds: from the SSE (160 degrees) at 3 MPH (3 knots; 1.6 m/s)
Visibility: 10 or more miles (16+ km)
Ceiling: 8000 feet AGL
Clouds: overcast cloud deck at 8000 feet AGL
Weather: automated observation with no human augmentation;
there may or may not be significant weather present at this time

METAR text: KMNH 291938Z AUTO 15007KT 10SM BKN090 OVC120 13/09 A3042 RMK AO2 LTG DSNT S THRU W
Conditions at: KMNH (MONUMENT/ELBERT , CO, US) observed 1938 UTC 29 August 2016
Temperature: 13.0°C (55°F)
Dewpoint: 9.0°C (48°F) [RH = 77%]
Pressure (altimeter): 30.42 inches Hg (1030.2 mb)
Winds: from the SSE (150 degrees) at 8 MPH (7 knots; 3.6 m/s)
Visibility: 10 or more miles (16+ km)
Ceiling: 9000 feet AGL
Clouds: broken clouds at 9000 feet AGL
overcast cloud deck at 12000 feet AGL
Weather: automated observation with no human augmentation;
there may or may not be significant weather present at this time

METAR text: KMNH 291919Z AUTO 15012G15KT 10SM OVC120 15/08 A3043 RMK AO2 LTG DSNT SE THRU SW
Conditions at: KMNH (MONUMENT/ELBERT , CO, US) observed 1919 UTC 29 August 2016
Temperature: 15.0°C (59°F)
Dewpoint: 8.0°C (46°F) [RH = 63%]
Pressure (altimeter): 30.43 inches Hg (1030.6 mb)
Winds: from the SSE (150 degrees) at 14 MPH (12 knots; 6.2 m/sgusting to 17 MPH (15 knots; 7.8 m/s)
Visibility: 10 or more miles (16+ km)
Ceiling: 12000 feet AGL
Clouds: overcast cloud deck at 12000 feet AGL
Weather: automated observation with no human augmentation;
there may or may not be significant weather present at this time

METAR text: KMNH 291859Z AUTO 11015G20KT 10SM TS SCT120 15/09 A3043 RMK AO2 LTG DSNT SE THRU W
Conditions at: KMNH (MONUMENT/ELBERT , CO, US) observed 1859 UTC 29 August 2016
Temperature: 15.0°C (59°F)
Dewpoint: 9.0°C (48°F) [RH = 67%]
Pressure (altimeter): 30.43 inches Hg (1030.6 mb)
Winds: from the ESE (110 degrees) at 17 MPH (15 knots; 7.8 m/sgusting to 23 MPH (20 knots; 10.4 m/s)
Visibility: 10 or more miles (16+ km)
Ceiling: at least 12,000 feet AGL
Clouds: scattered clouds at 12000 feet AGL
Weather: TS  (thunderstorm)

METAR text: KMNH 291838Z AUTO 10SM VCTS CLR 17/10 A3043 RMK AO2 LTG DSNT E THRU SW
Conditions at: KMNH (MONUMENT/ELBERT , CO, US) observed 1838 UTC 29 August 2016
Temperature: 17.0°C (63°F)
Dewpoint: 10.0°C (50°F) [RH = 63%]
Pressure (altimeter): 30.43 inches Hg (1030.6 mb)
Winds: missing
Visibility: 10 or more miles (16+ km)
Ceiling: at least 12,000 feet AGL
Clouds: sky clear below 12,000 feet AGL
Weather: VCTS  (thunderstorm in vicinity)

METAR text: KMNH 291819Z AUTO 12008KT 10SM CLR 21/10 A3042 RMK AO2 LTG DSNT E THRU SW
Conditions at: KMNH (MONUMENT/ELBERT , CO, US) observed 1819 UTC 29 August 2016
Temperature: 21.0°C (70°F)
Dewpoint: 10.0°C (50°F) [RH = 49%]
Pressure (altimeter): 30.42 inches Hg (1030.2 mb)
Winds: from the ESE (120 degrees) at 9 MPH (8 knots; 4.2 m/s)
Visibility: 10 or more miles (16+ km)
Ceiling: at least 12,000 feet AGL
Clouds: sky clear below 12,000 feet AGL
Weather: automated observation with no human augmentation;
there may or may not be significant weather present at this time

METAR text: KMNH 291759Z AUTO 10007KT 10SM SCT060 SCT070 19/09 A3043 RMK AO2 LTG DSNT SE
Conditions at: KMNH (MONUMENT/ELBERT , CO, US) observed 1759 UTC 29 August 2016
Temperature: 19.0°C (66°F)
Dewpoint: 9.0°C (48°F) [RH = 52%]
Pressure (altimeter): 30.43 inches Hg (1030.6 mb)
Winds: from the E (100 degrees) at 8 MPH (7 knots; 3.6 m/s)
Visibility: 10 or more miles (16+ km)
Ceiling: at least 12,000 feet AGL
Clouds: scattered clouds at 6000 feet AGL
scattered clouds at 7000 feet AGL
Weather: automated observation with no human augmentation;
there may or may not be significant weather present at this time

METAR text: KMNH 291738Z AUTO 11010G14KT 10SM SCT048 SCT060 SCT070 20/08 A3044 RMK AO2 LTG DSNT SW
Conditions at: KMNH (MONUMENT/ELBERT , CO, US) observed 1738 UTC 29 August 2016
Temperature: 20.0°C (68°F)
Dewpoint: 8.0°C (46°F) [RH = 46%]
Pressure (altimeter): 30.44 inches Hg (1030.9 mb)
Winds: from the ESE (110 degrees) at 12 MPH (10 knots; 5.2 m/sgusting to 16 MPH (14 knots; 7.3 m/s)
Visibility: 10 or more miles (16+ km)
Ceiling: at least 12,000 feet AGL
Clouds: scattered clouds at 4800 feet AGL
scattered clouds at 6000 feet AGL
scattered clouds at 7000 feet AGL
Weather: automated observation with no human augmentation;
there may or may not be significant weather present at this time

METAR text: KMNH 291719Z AUTO 10005KT 10SM SCT048 BKN060 20/08 A3044 RMK AO2
Conditions at: KMNH (MONUMENT/ELBERT , CO, US) observed 1719 UTC 29 August 2016
Temperature: 20.0°C (68°F)
Dewpoint: 8.0°C (46°F) [RH = 46%]
Pressure (altimeter): 30.44 inches Hg (1030.9 mb)
Winds: from the E (100 degrees) at 6 MPH (5 knots; 2.6 m/s)
Visibility: 10 or more miles (16+ km)
Ceiling: 6000 feet AGL
Clouds: scattered clouds at 4800 feet AGL
broken clouds at 6000 feet AGL
Weather: automated observation with no human augmentation;
there may or may not be significant weather present at this time

METAR text: KMNH 291659Z AUTO 05003KT 10SM SCT047 20/08 A3044 RMK AO2
Conditions at: KMNH (MONUMENT/ELBERT , CO, US) observed 1659 UTC 29 August 2016
Temperature: 20.0°C (68°F)
Dewpoint: 8.0°C (46°F) [RH = 46%]
Pressure (altimeter): 30.44 inches Hg (1030.9 mb)
Winds: from the NE (50 degrees) at 3 MPH (3 knots; 1.6 m/s)
Visibility: 10 or more miles (16+ km)
Ceiling: at least 12,000 feet AGL
Clouds: scattered clouds at 4700 feet AGL
Weather: automated observation with no human augmentation;
there may or may not be significant weather present at this time

METAR text: KMNH 291639Z AUTO 10006KT 10SM CLR 20/08 A3044 RMK AO2
Conditions at: KMNH (MONUMENT/ELBERT , CO, US) observed 1639 UTC 29 August 2016
Temperature: 20.0°C (68°F)
Dewpoint: 8.0°C (46°F) [RH = 46%]
Pressure (altimeter): 30.44 inches Hg (1030.9 mb)
Winds: from the E (100 degrees) at 7 MPH (6 knots; 3.1 m/s)
Visibility: 10 or more miles (16+ km)
Ceiling: at least 12,000 feet AGL
Clouds: sky clear below 12,000 feet AGL
Weather: automated observation with no human augmentation;
there may or may not be significant weather present at this time

METAR text: KMNH 291618Z AUTO 07006KT 10SM CLR 20/07 A3043 RMK AO2
Conditions at: KMNH (MONUMENT/ELBERT , CO, US) observed 1618 UTC 29 August 2016
Temperature: 20.0°C (68°F)
Dewpoint: 7.0°C (45°F) [RH = 43%]
Pressure (altimeter): 30.43 inches Hg (1030.6 mb)
Winds: from the ENE (70 degrees) at 7 MPH (6 knots; 3.1 m/s)
Visibility: 10 or more miles (16+ km)
Ceiling: at least 12,000 feet AGL
Clouds: sky clear below 12,000 feet AGL
Weather: automated observation with no human augmentation;
there may or may not be significant weather present at this time

METAR text: KMNH 291559Z AUTO 05006KT 10SM CLR 18/05 A3043 RMK AO2
Conditions at: KMNH (MONUMENT/ELBERT , CO, US) observed 1559 UTC 29 August 2016
Temperature: 18.0°C (64°F)
Dewpoint: 5.0°C (41°F) [RH = 42%]
Pressure (altimeter): 30.43 inches Hg (1030.6 mb)
Winds: from the NE (50 degrees) at 7 MPH (6 knots; 3.1 m/s)
Visibility: 10 or more miles (16+ km)
Ceiling: at least 12,000 feet AGL
Clouds: sky clear below 12,000 feet AGL
Weather: automated observation with no human augmentation;
there may or may not be significant weather present at this time

METAR text: KMNH 291539Z AUTO 05005KT 10SM CLR 19/05 A3042 RMK AO2
Conditions at: KMNH (MONUMENT/ELBERT , CO, US) observed 1539 UTC 29 August 2016
Temperature: 19.0°C (66°F)
Dewpoint: 5.0°C (41°F) [RH = 40%]
Pressure (altimeter): 30.42 inches Hg (1030.2 mb)
Winds: from the NE (50 degrees) at 6 MPH (5 knots; 2.6 m/s)
Visibility: 10 or more miles (16+ km)
Ceiling: at least 12,000 feet AGL
Clouds: sky clear below 12,000 feet AGL
Weather: automated observation with no human augmentation;
there may or may not be significant weather present at this time

METAR text: KMNH 291519Z AUTO 04004KT 10SM CLR 18/06 A3041 RMK AO2
Conditions at: KMNH (MONUMENT/ELBERT , CO, US) observed 1519 UTC 29 August 2016
Temperature: 18.0°C (64°F)
Dewpoint: 6.0°C (43°F) [RH = 45%]
Pressure (altimeter): 30.41 inches Hg (1029.9 mb)
Winds: from the NE (40 degrees) at 5 MPH (4 knots; 2.1 m/s)
Visibility: 10 or more miles (16+ km)
Ceiling: at least 12,000 feet AGL
Clouds: sky clear below 12,000 feet AGL
Weather: automated observation with no human augmentation;
there may or may not be significant weather present at this time

METAR text: KMNH 291459Z AUTO 00000KT 10SM CLR 17/07 A3041 RMK AO2
Conditions at: KMNH (MONUMENT/ELBERT , CO, US) observed 1459 UTC 29 August 2016
Temperature: 17.0°C (63°F)
Dewpoint: 7.0°C (45°F) [RH = 52%]
Pressure (altimeter): 30.41 inches Hg (1029.9 mb)
Winds: calm
Visibility: 10 or more miles (16+ km)
Ceiling: at least 12,000 feet AGL
Clouds: sky clear below 12,000 feet AGL
Weather: automated observation with no human augmentation;
there may or may not be significant weather present at this time

METAR text: KMNH 291439Z AUTO 00000KT 10SM CLR 17/07 A3040 RMK AO2
Conditions at: KMNH (MONUMENT/ELBERT , CO, US) observed 1439 UTC 29 August 2016
Temperature: 17.0°C (63°F)
Dewpoint: 7.0°C (45°F) [RH = 52%]
Pressure (altimeter): 30.40 inches Hg (1029.5 mb)
Winds: calm
Visibility: 10 or more miles (16+ km)
Ceiling: at least 12,000 feet AGL
Clouds: sky clear below 12,000 feet AGL
Weather: automated observation with no human augmentation;
there may or may not be significant weather present at this time

METAR text: KMNH 291419Z AUTO 00000KT 10SM CLR 15/07 A3040 RMK AO2
Conditions at: KMNH (MONUMENT/ELBERT , CO, US) observed 1419 UTC 29 August 2016
Temperature: 15.0°C (59°F)
Dewpoint: 7.0°C (45°F) [RH = 59%]
Pressure (altimeter): 30.40 inches Hg (1029.5 mb)
Winds: calm
Visibility: 10 or more miles (16+ km)
Ceiling: at least 12,000 feet AGL
Clouds: sky clear below 12,000 feet AGL
Weather: automated observation with no human augmentation;
there may or may not be significant weather present at this time

METAR text: KMNH 291358Z AUTO 26006KT 10SM CLR 14/07 A3040 RMK AO2
Conditions at: KMNH (MONUMENT/ELBERT , CO, US) observed 1358 UTC 29 August 2016
Temperature: 14.0°C (57°F)
Dewpoint: 7.0°C (45°F) [RH = 63%]
Pressure (altimeter): 30.40 inches Hg (1029.5 mb)
Winds: from the W (260 degrees) at 7 MPH (6 knots; 3.1 m/s)
Visibility: 10 or more miles (16+ km)
Ceiling: at least 12,000 feet AGL
Clouds: sky clear below 12,000 feet AGL
Weather: automated observation with no human augmentation;
there may or may not be significant weather present at this time

METAR text: KMNH 291339Z AUTO 25005KT 10SM CLR 13/07 A3040 RMK AO2
Conditions at: KMNH (MONUMENT/ELBERT , CO, US) observed 1339 UTC 29 August 2016
Temperature: 13.0°C (55°F)
Dewpoint: 7.0°C (45°F) [RH = 67%]
Pressure (altimeter): 30.40 inches Hg (1029.5 mb)
Winds: from the WSW (250 degrees) at 6 MPH (5 knots; 2.6 m/s)
Visibility: 10 or more miles (16+ km)
Ceiling: at least 12,000 feet AGL
Clouds: sky clear below 12,000 feet AGL
Weather: automated observation with no human augmentation;
there may or may not be significant weather present at this time

METAR text: KMNH 291318Z AUTO 26005KT 10SM CLR 12/07 A3039 RMK AO2
Conditions at: KMNH (MONUMENT/ELBERT , CO, US) observed 1318 UTC 29 August 2016
Temperature: 12.0°C (54°F)
Dewpoint: 7.0°C (45°F) [RH = 71%]
Pressure (altimeter): 30.39 inches Hg (1029.2 mb)
Winds: from the W (260 degrees) at 6 MPH (5 knots; 2.6 m/s)
Visibility: 10 or more miles (16+ km)
Ceiling: at least 12,000 feet AGL
Clouds: sky clear below 12,000 feet AGL
Weather: automated observation with no human augmentation;
there may or may not be significant weather present at this time

METAR text: KMNH 291259Z AUTO 25005KT 10SM CLR 11/07 A3039 RMK AO2
Conditions at: KMNH (MONUMENT/ELBERT , CO, US) observed 1259 UTC 29 August 2016
Temperature: 11.0°C (52°F)
Dewpoint: 7.0°C (45°F) [RH = 76%]
Pressure (altimeter): 30.39 inches Hg (1029.2 mb)
Winds: from the WSW (250 degrees) at 6 MPH (5 knots; 2.6 m/s)
Visibility: 10 or more miles (16+ km)
Ceiling: at least 12,000 feet AGL
Clouds: sky clear below 12,000 feet AGL
Weather: automated observation with no human augmentation;
there may or may not be significant weather present at this time

METAR text: KMNH 291239Z AUTO 28004KT 10SM CLR 10/07 A3038 RMK AO2 LTG DSNT SW
Conditions at: KMNH (MONUMENT/ELBERT , CO, US) observed 1239 UTC 29 August 2016
Temperature: 10.0°C (50°F)
Dewpoint: 7.0°C (45°F) [RH = 82%]
Pressure (altimeter): 30.38 inches Hg (1028.9 mb)
Winds: from the W (280 degrees) at 5 MPH (4 knots; 2.1 m/s)
Visibility: 10 or more miles (16+ km)
Ceiling: at least 12,000 feet AGL
Clouds: sky clear below 12,000 feet AGL
Weather: automated observation with no human augmentation;
there may or may not be significant weather present at this time

METAR text: KMNH 291219Z AUTO 31004KT 10SM SCT120 11/07 A3037 RMK AO2
Conditions at: KMNH (MONUMENT/ELBERT , CO, US) observed 1219 UTC 29 August 2016
Temperature: 11.0°C (52°F)
Dewpoint: 7.0°C (45°F) [RH = 76%]
Pressure (altimeter): 30.37 inches Hg (1028.5 mb)
Winds: from the NW (310 degrees) at 5 MPH (4 knots; 2.1 m/s)
Visibility: 10 or more miles (16+ km)
Ceiling: at least 12,000 feet AGL
Clouds: scattered clouds at 12000 feet AGL
Weather: automated observation with no human augmentation;
there may or may not be significant weather present at this time

METAR text: KMNH 291159Z AUTO 27005KT 10SM SCT120 11/07 A3037 RMK AO2 LTG DSNT SW
Conditions at: KMNH (MONUMENT/ELBERT , CO, US) observed 1159 UTC 29 August 2016
Temperature: 11.0°C (52°F)
Dewpoint: 7.0°C (45°F) [RH = 76%]
Pressure (altimeter): 30.37 inches Hg (1028.5 mb)
Winds: from the W (270 degrees) at 6 MPH (5 knots; 2.6 m/s)
Visibility: 10 or more miles (16+ km)
Ceiling: at least 12,000 feet AGL
Clouds: scattered clouds at 12000 feet AGL
Weather: automated observation with no human augmentation;
there may or may not be significant weather present at this time

METAR text: KMNH 291139Z AUTO 27008KT 10SM BKN110 11/07 A3036 RMK AO2 LTG DSNT SW
Conditions at: KMNH (MONUMENT/ELBERT , CO, US) observed 1139 UTC 29 August 2016
Temperature: 11.0°C (52°F)
Dewpoint: 7.0°C (45°F) [RH = 76%]
Pressure (altimeter): 30.36 inches Hg (1028.2 mb)
Winds: from the W (270 degrees) at 9 MPH (8 knots; 4.2 m/s)
Visibility: 10 or more miles (16+ km)
Ceiling: 11000 feet AGL
Clouds: broken clouds at 11000 feet AGL
Weather: automated observation with no human augmentation;
there may or may not be significant weather present at this time

METAR text: KMNH 291119Z AUTO 25007KT 10SM OVC110 11/07 A3036 RMK AO2
Conditions at: KMNH (MONUMENT/ELBERT , CO, US) observed 1119 UTC 29 August 2016
Temperature: 11.0°C (52°F)
Dewpoint: 7.0°C (45°F) [RH = 76%]
Pressure (altimeter): 30.36 inches Hg (1028.2 mb)
Winds: from the WSW (250 degrees) at 8 MPH (7 knots; 3.6 m/s)
Visibility: 10 or more miles (16+ km)
Ceiling: 11000 feet AGL
Clouds: overcast cloud deck at 11000 feet AGL
Weather: automated observation with no human augmentation;
there may or may not be significant weather present at this time

METAR text: KMNH 291058Z AUTO 25009KT 10SM OVC100 11/07 A3036 RMK AO2 LTG DSNT SW
Conditions at: KMNH (MONUMENT/ELBERT , CO, US) observed 1058 UTC 29 August 2016
Temperature: 11.0°C (52°F)
Dewpoint: 7.0°C (45°F) [RH = 76%]
Pressure (altimeter): 30.36 inches Hg (1028.2 mb)
Winds: from the WSW (250 degrees) at 10 MPH (9 knots; 4.7 m/s)
Visibility: 10 or more miles (16+ km)
Ceiling: 10000 feet AGL
Clouds: overcast cloud deck at 10000 feet AGL
Weather: automated observation with no human augmentation;
there may or may not be significant weather present at this time

METAR text: KMNH 291039Z AUTO 26008KT 10SM OVC090 11/07 A3035 RMK AO2
Conditions at: KMNH (MONUMENT/ELBERT , CO, US) observed 1039 UTC 29 August 2016
Temperature: 11.0°C (52°F)
Dewpoint: 7.0°C (45°F) [RH = 76%]
Pressure (altimeter): 30.35 inches Hg (1027.9 mb)
Winds: from the W (260 degrees) at 9 MPH (8 knots; 4.2 m/s)
Visibility: 10 or more miles (16+ km)
Ceiling: 9000 feet AGL
Clouds: overcast cloud deck at 9000 feet AGL
Weather: automated observation with no human augmentation;
there may or may not be significant weather present at this time

METAR text: KMNH 291019Z AUTO 27011KT 10SM OVC090 11/07 A3036 RMK AO2
Conditions at: KMNH (MONUMENT/ELBERT , CO, US) observed 1019 UTC 29 August 2016
Temperature: 11.0°C (52°F)
Dewpoint: 7.0°C (45°F) [RH = 76%]
Pressure (altimeter): 30.36 inches Hg (1028.2 mb)
Winds: from the W (270 degrees) at 13 MPH (11 knots; 5.7 m/s)
Visibility: 10 or more miles (16+ km)
Ceiling: 9000 feet AGL
Clouds: overcast cloud deck at 9000 feet AGL
Weather: automated observation with no human augmentation;
there may or may not be significant weather present at this time

METAR text: KMNH 290959Z AUTO 22012G21KT 10SM SCT060 BKN080 OVC090 11/07 A3039 RMK AO2 LTG DSNT SW
Conditions at: KMNH (MONUMENT/ELBERT , CO, US) observed 0959 UTC 29 August 2016
Temperature: 11.0°C (52°F)
Dewpoint: 7.0°C (45°F) [RH = 76%]
Pressure (altimeter): 30.39 inches Hg (1029.2 mb)
Winds: from the SW (220 degrees) at 14 MPH (12 knots; 6.2 m/sgusting to 24 MPH (21 knots; 10.9 m/s)
Visibility: 10 or more miles (16+ km)
Ceiling: 8000 feet AGL
Clouds: scattered clouds at 6000 feet AGL
broken clouds at 8000 feet AGL
overcast cloud deck at 9000 feet AGL
Weather: automated observation with no human augmentation;
there may or may not be significant weather present at this time

METAR text: KMNH 290939Z AUTO 23015G23KT 10SM SCT060 OVC080 10/07 A3040 RMK AO2
Conditions at: KMNH (MONUMENT/ELBERT , CO, US) observed 0939 UTC 29 August 2016
Temperature: 10.0°C (50°F)
Dewpoint: 7.0°C (45°F) [RH = 82%]
Pressure (altimeter): 30.40 inches Hg (1029.5 mb)
Winds: from the SW (230 degrees) at 17 MPH (15 knots; 7.8 m/sgusting to 26 MPH (23 knots; 12.0 m/s)
Visibility: 10 or more miles (16+ km)
Ceiling: 8000 feet AGL
Clouds: scattered clouds at 6000 feet AGL
overcast cloud deck at 8000 feet AGL
Weather: automated observation with no human augmentation;
there may or may not be significant weather present at this time

METAR text: KMNH 290919Z AUTO 21014G21KT 10SM SCT070 OVC090 11/07 A3039 RMK AO2 LTG DSNT SW
Conditions at: KMNH (MONUMENT/ELBERT , CO, US) observed 0919 UTC 29 August 2016
Temperature: 11.0°C (52°F)
Dewpoint: 7.0°C (45°F) [RH = 76%]
Pressure (altimeter): 30.39 inches Hg (1029.2 mb)
Winds: from the SSW (210 degrees) at 16 MPH (14 knots; 7.3 m/sgusting to 24 MPH (21 knots; 10.9 m/s)
Visibility: 10 or more miles (16+ km)
Ceiling: 9000 feet AGL
Clouds: scattered clouds at 7000 feet AGL
overcast cloud deck at 9000 feet AGL
Weather: automated observation with no human augmentation;
there may or may not be significant weather present at this time

METAR text: KMNH 290858Z AUTO 21016G23KT 10SM OVC090 10/08 A3039 RMK AO2 P0002
Conditions at: KMNH (MONUMENT/ELBERT , CO, US) observed 0858 UTC 29 August 2016
Temperature: 10.0°C (50°F)
Dewpoint: 8.0°C (46°F) [RH = 87%]
Pressure (altimeter): 30.39 inches Hg (1029.2 mb)
Winds: from the SSW (210 degrees) at 18 MPH (16 knots; 8.3 m/sgusting to 26 MPH (23 knots; 12.0 m/s)
Visibility: 10 or more miles (16+ km)
Ceiling: 9000 feet AGL
Clouds: overcast cloud deck at 9000 feet AGL
Weather: automated observation with no human augmentation;
there may or may not be significant weather present at this time

METAR text: KMNH 290839Z AUTO 20019G23KT 10SM SCT055 OVC090 10/08 A3040 RMK AO2 P0002
Conditions at: KMNH (MONUMENT/ELBERT , CO, US) observed 0839 UTC 29 August 2016
Temperature: 10.0°C (50°F)
Dewpoint: 8.0°C (46°F) [RH = 87%]
Pressure (altimeter): 30.40 inches Hg (1029.5 mb)
Winds: from the SSW (200 degrees) at 22 MPH (19 knots; 9.9 m/sgusting to 26 MPH (23 knots; 12.0 m/s)
Visibility: 10 or more miles (16+ km)
Ceiling: 9000 feet AGL
Clouds: scattered clouds at 5500 feet AGL
overcast cloud deck at 9000 feet AGL
Weather: automated observation with no human augmentation;
there may or may not be significant weather present at this time

METAR text: KMNH 290819Z AUTO 20013KT 10SM -RA SCT025 SCT033 OVC055 10/08 A3041 RMK AO2 LTG DSNT N AND NE P0002
Conditions at: KMNH (MONUMENT/ELBERT , CO, US) observed 0819 UTC 29 August 2016
Temperature: 10.0°C (50°F)
Dewpoint: 8.0°C (46°F) [RH = 87%]
Pressure (altimeter): 30.41 inches Hg (1029.9 mb)
Winds: from the SSW (200 degrees) at 15 MPH (13 knots; 6.8 m/s)
Visibility: 10 or more miles (16+ km)
Ceiling: 5500 feet AGL
Clouds: scattered clouds at 2500 feet AGL
scattered clouds at 3300 feet AGL
overcast cloud deck at 5500 feet AGL
Weather: -RA  (light rain)

METAR text: KMNH 290759Z AUTO 21013G17KT 7SM -RA SCT021 BKN060 OVC070 10/08 A3045 RMK AO2 LTG DSNT NE P0004
Conditions at: KMNH (MONUMENT/ELBERT , CO, US) observed 0759 UTC 29 August 2016
Temperature: 10.0°C (50°F)
Dewpoint: 8.0°C (46°F) [RH = 87%]
Pressure (altimeter): 30.45 inches Hg (1031.2 mb)
Winds: from the SSW (210 degrees) at 15 MPH (13 knots; 6.8 m/sgusting to 20 MPH (17 knots; 8.8 m/s)
Visibility: 7 miles (11 km)
Ceiling: 6000 feet AGL
Clouds: scattered clouds at 2100 feet AGL
broken clouds at 6000 feet AGL
overcast cloud deck at 7000 feet AGL
Weather: -RA  (light rain)

METAR text: KMNH 290739Z AUTO 21008KT 10SM -RA SCT060 OVC070 11/08 A3045 RMK AO2 P0001
Conditions at: KMNH (MONUMENT/ELBERT , CO, US) observed 0739 UTC 29 August 2016
Temperature: 11.0°C (52°F)
Dewpoint: 8.0°C (46°F) [RH = 82%]
Pressure (altimeter): 30.45 inches Hg (1031.2 mb)
Winds: from the SSW (210 degrees) at 9 MPH (8 knots; 4.2 m/s)
Visibility: 10 or more miles (16+ km)
Ceiling: 7000 feet AGL
Clouds: scattered clouds at 6000 feet AGL
overcast cloud deck at 7000 feet AGL
Weather: -RA  (light rain)

METAR text: KMNH 290719Z AUTO 24009KT 10SM VCTS SCT070 BKN095 OVC110 10/09 A3044 RMK AO2 LTG DSNT SE
Conditions at: KMNH (MONUMENT/ELBERT , CO, US) observed 0719 UTC 29 August 2016
Temperature: 10.0°C (50°F)
Dewpoint: 9.0°C (48°F) [RH = 93%]
Pressure (altimeter): 30.44 inches Hg (1030.9 mb)
Winds: from the WSW (240 degrees) at 10 MPH (9 knots; 4.7 m/s)
Visibility: 10 or more miles (16+ km)
Ceiling: 9500 feet AGL
Clouds: scattered clouds at 7000 feet AGL
broken clouds at 9500 feet AGL
overcast cloud deck at 11000 feet AGL
Weather: VCTS  (thunderstorm in vicinity)

METAR text: KMNH 290658Z AUTO 23010KT 10SM -VCTSRA SCT070 OVC100 10/09 A3043 RMK AO2 LTG DSNT E THRU S P0003
Conditions at: KMNH (MONUMENT/ELBERT , CO, US) observed 0658 UTC 29 August 2016
Temperature: 10.0°C (50°F)
Dewpoint: 9.0°C (48°F) [RH = 93%]
Pressure (altimeter): 30.43 inches Hg (1030.6 mb)
Winds: from the SW (230 degrees) at 12 MPH (10 knots; 5.2 m/s)
Visibility: 10 or more miles (16+ km)
Ceiling: 10000 feet AGL
Clouds: scattered clouds at 7000 feet AGL
overcast cloud deck at 10000 feet AGL
Weather: VCTS -RA  (thunderstorm in vicinity, light rain)

METAR text: KMNH 290639Z AUTO 24008G20KT 10SM -TSRA SCT042 SCT050 OVC070 10/09 A3044 RMK AO2 LTG DSNT E P0003
Conditions at: KMNH (MONUMENT/ELBERT , CO, US) observed 0639 UTC 29 August 2016
Temperature: 10.0°C (50°F)
Dewpoint: 9.0°C (48°F) [RH = 93%]
Pressure (altimeter): 30.44 inches Hg (1030.9 mb)
Winds: from the WSW (240 degrees) at 9 MPH (8 knots; 4.2 m/sgusting to 23 MPH (20 knots; 10.4 m/s)
Visibility: 10 or more miles (16+ km)
Ceiling: 7000 feet AGL
Clouds: scattered clouds at 4200 feet AGL
scattered clouds at 5000 feet AGL
overcast cloud deck at 7000 feet AGL
Weather: -TSRA  (light rain associated with thunderstorm(s))

METAR text: KMNH 290619Z AUTO 24012G15KT 10SM TSRA BKN050 OVC070 10/09 A3044 RMK AO2 LTG DSNT NE THRU S P0001
Conditions at: KMNH (MONUMENT/ELBERT , CO, US) observed 0619 UTC 29 August 2016
Temperature: 10.0°C (50°F)
Dewpoint: 9.0°C (48°F) [RH = 93%]
Pressure (altimeter): 30.44 inches Hg (1030.9 mb)
Winds: from the WSW (240 degrees) at 14 MPH (12 knots; 6.2 m/sgusting to 17 MPH (15 knots; 7.8 m/s)
Visibility: 10 or more miles (16+ km)
Ceiling: 5000 feet AGL
Clouds: broken clouds at 5000 feet AGL
overcast cloud deck at 7000 feet AGL
Weather: TSRA  (rain associated with thunderstorm(s))

METAR text: KMNH 290558Z AUTO 26008G14KT 10SM -VCTSRA SCT060 OVC070 10/09 A3045 RMK AO2 LTG DSNT SE THRU NW P0008
Conditions at: KMNH (MONUMENT/ELBERT , CO, US) observed 0558 UTC 29 August 2016
Temperature: 10.0°C (50°F)
Dewpoint: 9.0°C (48°F) [RH = 93%]
Pressure (altimeter): 30.45 inches Hg (1031.2 mb)
Winds: from the W (260 degrees) at 9 MPH (8 knots; 4.2 m/sgusting to 16 MPH (14 knots; 7.3 m/s)
Visibility: 10 or more miles (16+ km)
Ceiling: 7000 feet AGL
Clouds: scattered clouds at 6000 feet AGL
overcast cloud deck at 7000 feet AGL
Weather: VCTS -RA  (thunderstorm in vicinity, light rain)

METAR text: KMNH 290539Z AUTO 22009KT 10SM TSRA SCT060 OVC070 10/08 A3045 RMK AO2 LTG DSNT ALQS P0005
Conditions at: KMNH (MONUMENT/ELBERT , CO, US) observed 0539 UTC 29 August 2016
Temperature: 10.0°C (50°F)
Dewpoint: 8.0°C (46°F) [RH = 87%]
Pressure (altimeter): 30.45 inches Hg (1031.2 mb)
Winds: from the SW (220 degrees) at 10 MPH (9 knots; 4.7 m/s)
Visibility: 10 or more miles (16+ km)
Ceiling: 7000 feet AGL
Clouds: scattered clouds at 6000 feet AGL
overcast cloud deck at 7000 feet AGL
Weather: TSRA  (rain associated with thunderstorm(s))

METAR text: KMNH 290519Z AUTO 20008G15KT 10SM TSRA SCT049 OVC070 11/08 A3045 RMK AO2 LTG DSNT ALQS P0001
Conditions at: KMNH (MONUMENT/ELBERT , CO, US) observed 0519 UTC 29 August 2016
Temperature: 11.0°C (52°F)
Dewpoint: 8.0°C (46°F) [RH = 82%]
Pressure (altimeter): 30.45 inches Hg (1031.2 mb)
Winds: from the SSW (200 degrees) at 9 MPH (8 knots; 4.2 m/sgusting to 17 MPH (15 knots; 7.8 m/s)
Visibility: 10 or more miles (16+ km)
Ceiling: 7000 feet AGL
Clouds: scattered clouds at 4900 feet AGL
overcast cloud deck at 7000 feet AGL
Weather: TSRA  (rain associated with thunderstorm(s))

METAR text: KMNH 290459Z AUTO 17008KT 10SM TSRA SCT060 OVC070 11/10 A3042 RMK AO2 LTG DSNT ALQS P0003
Conditions at: KMNH (MONUMENT/ELBERT , CO, US) observed 0459 UTC 29 August 2016
Temperature: 11.0°C (52°F)
Dewpoint: 10.0°C (50°F) [RH = 94%]
Pressure (altimeter): 30.42 inches Hg (1030.2 mb)
Winds: from the S (170 degrees) at 9 MPH (8 knots; 4.2 m/s)
Visibility: 10 or more miles (16+ km)
Ceiling: 7000 feet AGL
Clouds: scattered clouds at 6000 feet AGL
overcast cloud deck at 7000 feet AGL
Weather: TSRA  (rain associated with thunderstorm(s))

METAR text: KMNH 290439Z AUTO 05012G19KT 10SM TSRA SCT060 OVC070 12/09 A3041 RMK AO2 LTG DSNT ALQS P0001
Conditions at: KMNH (MONUMENT/ELBERT , CO, US) observed 0439 UTC 29 August 2016
Temperature: 12.0°C (54°F)
Dewpoint: 9.0°C (48°F) [RH = 82%]
Pressure (altimeter): 30.41 inches Hg (1029.9 mb)
Winds: from the NE (50 degrees) at 14 MPH (12 knots; 6.2 m/sgusting to 22 MPH (19 knots; 9.9 m/s)
Visibility: 10 or more miles (16+ km)
Ceiling: 7000 feet AGL
Clouds: scattered clouds at 6000 feet AGL
overcast cloud deck at 7000 feet AGL
Weather: TSRA  (rain associated with thunderstorm(s))

METAR text: KMNH 290419Z AUTO 05013G16KT 10SM TS BKN060 OVC070 14/07 A3038 RMK AO2 LTG DSNT ALQS
Conditions at: KMNH (MONUMENT/ELBERT , CO, US) observed 0419 UTC 29 August 2016
Temperature: 14.0°C (57°F)
Dewpoint: 7.0°C (45°F) [RH = 63%]
Pressure (altimeter): 30.38 inches Hg (1028.9 mb)
Winds: from the NE (50 degrees) at 15 MPH (13 knots; 6.8 m/sgusting to 18 MPH (16 knots; 8.3 m/s)
Visibility: 10 or more miles (16+ km)
Ceiling: 6000 feet AGL
Clouds: broken clouds at 6000 feet AGL
overcast cloud deck at 7000 feet AGL
Weather: TS  (thunderstorm)

METAR text: KMNH 290359Z AUTO 06009KT 10SM SCT060 SCT070 OVC090 15/06 A3037 RMK AO2 LTG DSNT SE AND SW
Conditions at: KMNH (MONUMENT/ELBERT , CO, US) observed 0359 UTC 29 August 2016
Temperature: 15.0°C (59°F)
Dewpoint: 6.0°C (43°F) [RH = 55%]
Pressure (altimeter): 30.37 inches Hg (1028.5 mb)
Winds: from the ENE (60 degrees) at 10 MPH (9 knots; 4.7 m/s)
Visibility: 10 or more miles (16+ km)
Ceiling: 9000 feet AGL
Clouds: scattered clouds at 6000 feet AGL
scattered clouds at 7000 feet AGL
overcast cloud deck at 9000 feet AGL
Weather: automated observation with no human augmentation;
there may or may not be significant weather present at this time

METAR text: KMNH 290339Z AUTO 03005KT 10SM OVC090 15/06 A3038 RMK AO2 LTG DSNT SW
Conditions at: KMNH (MONUMENT/ELBERT , CO, US) observed 0339 UTC 29 August 2016
Temperature: 15.0°C (59°F)
Dewpoint: 6.0°C (43°F) [RH = 55%]
Pressure (altimeter): 30.38 inches Hg (1028.9 mb)
Winds: from the NNE (30 degrees) at 6 MPH (5 knots; 2.6 m/s)
Visibility: 10 or more miles (16+ km)
Ceiling: 9000 feet AGL
Clouds: overcast cloud deck at 9000 feet AGL
Weather: automated observation with no human augmentation;
there may or may not be significant weather present at this time

METAR text: KMNH 290319Z AUTO 02004KT 10SM BKN100 15/06 A3038 RMK AO2 LTG DSNT SW
Conditions at: KMNH (MONUMENT/ELBERT , CO, US) observed 0319 UTC 29 August 2016
Temperature: 15.0°C (59°F)
Dewpoint: 6.0°C (43°F) [RH = 55%]
Pressure (altimeter): 30.38 inches Hg (1028.9 mb)
Winds: from the NNE (20 degrees) at 5 MPH (4 knots; 2.1 m/s)
Visibility: 10 or more miles (16+ km)
Ceiling: 10000 feet AGL
Clouds: broken clouds at 10000 feet AGL
Weather: automated observation with no human augmentation;
there may or may not be significant weather present at this time

METAR text: KMNH 290259Z AUTO 05005KT 10SM SCT100 14/06 A3037 RMK AO2
Conditions at: KMNH (MONUMENT/ELBERT , CO, US) observed 0259 UTC 29 August 2016
Temperature: 14.0°C (57°F)
Dewpoint: 6.0°C (43°F) [RH = 58%]
Pressure (altimeter): 30.37 inches Hg (1028.5 mb)
Winds: from the NE (50 degrees) at 6 MPH (5 knots; 2.6 m/s)
Visibility: 10 or more miles (16+ km)
Ceiling: at least 12,000 feet AGL
Clouds: scattered clouds at 10000 feet AGL
Weather: automated observation with no human augmentation;
there may or may not be significant weather present at this time